Time;durP1;ratioP1;P1;durP2;ratioP2;P2;SDS_P1;SDS_P2;PMS_P1;PMS_P2;Temp;Humidity;BMP_temperature;BMP_pressure;BME280_temperature;BME280_humidity;BME280_pressure;Samples;Min_cycle;Max_cycle;Signal;HPM_P1;HPM_P2
2022/07/10 00:02:03;;;;;;;4.68;2.38;;;17.60;99.90;;;;;;5015285;28;20021;-49
2022/07/10 00:04:29;;;;;;;5.35;2.60;;;17.50;99.90;;;;;;5015061;28;20024;-46
2022/07/10 00:06:55;;;;;;;2.30;2.05;;;17.50;99.90;;;;;;5032164;28;20022;-46
2022/07/10 00:09:22;;;;;;;4.38;2.92;;;17.40;99.90;;;;;;5032650;28;20440;-46
2022/07/10 00:11:47;;;;;;;1.92;1.83;;;17.30;99.90;;;;;;5032728;28;20027;-47
2022/07/10 00:14:13;;;;;;;2.35;2.15;;;17.30;99.90;;;;;;5032890;28;20497;-47
2022/07/10 00:16:38;;;;;;;4.50;2.55;;;17.30;99.90;;;;;;5032708;28;20034;-46
2022/07/10 00:19:04;;;;;;;5.03;2.05;;;17.30;99.90;;;;;;5031754;28;20022;-48
2022/07/10 00:21:29;;;;;;;5.82;2.67;;;17.20;99.90;;;;;;5031815;28;20043;-45
2022/07/10 00:23:55;;;;;;;2.42;2.22;;;17.30;99.90;;;;;;5014748;28;20112;-46
2022/07/10 00:26:20;;;;;;;3.85;2.45;;;17.20;99.90;;;;;;5032587;28;20025;-48
2022/07/10 00:28:46;;;;;;;2.08;1.88;;;17.20;99.90;;;;;;5031830;28;20033;-49
2022/07/10 00:31:11;;;;;;;4.75;2.50;;;17.10;99.90;;;;;;5032376;28;20457;-45
2022/07/10 00:33:38;;;;;;;5.30;3.08;;;17.00;99.90;;;;;;5032451;28;20129;-47
2022/07/10 00:36:05;;;;;;;4.15;2.38;;;17.10;99.90;;;;;;5032357;28;20032;-47
2022/07/10 00:38:30;;;;;;;2.50;2.30;;;17.00;99.90;;;;;;5031468;28;20438;-48
2022/07/10 00:40:56;;;;;;;5.15;2.22;;;17.00;99.90;;;;;;5032320;28;20098;-47
2022/07/10 00:43:21;;;;;;;2.53;2.22;;;17.00;99.90;;;;;;5014617;28;20026;-45
2022/07/10 00:45:48;;;;;;;1.95;1.85;;;17.00;99.90;;;;;;5032112;28;20065;-47
2022/07/10 00:48:14;;;;;;;3.92;2.08;;;17.00;99.90;;;;;;5029536;28;20033;-47
2022/07/10 00:50:41;;;;;;;5.80;1.88;;;17.00;99.90;;;;;;5032216;28;20033;-47
2022/07/10 00:53:07;;;;;;;7.47;2.20;;;17.00;99.90;;;;;;5032072;28;20033;-46
2022/07/10 00:55:35;;;;;;;3.88;1.90;;;16.90;99.90;;;;;;5032125;28;20107;-47
2022/07/10 00:58:01;;;;;;;7.57;1.75;;;16.90;99.90;;;;;;5031280;28;20029;-47
2022/07/10 01:00:28;;;;;;;5.13;1.77;;;16.90;99.90;;;;;;5032265;28;20080;-45
2022/07/10 01:02:54;;;;;;;8.27;1.92;;;16.90;99.90;;;;;;5031989;28;20030;-47
2022/07/10 01:05:19;;;;;;;3.10;1.77;;;16.90;99.90;;;;;;5031960;28;20600;-46
2022/07/10 01:07:45;;;;;;;3.97;1.60;;;16.80;99.90;;;;;;5031137;28;20065;-49
2022/07/10 01:10:10;;;;;;;2.70;1.80;;;16.80;99.90;;;;;;5031511;28;20037;-48
2022/07/10 01:12:37;;;;;;;4.57;1.83;;;16.70;99.90;;;;;;5031869;28;20028;-45
2022/07/10 01:15:03;;;;;;;4.18;1.55;;;16.70;99.90;;;;;;5031598;28;20036;-47
2022/07/10 01:17:30;;;;;;;3.00;1.77;;;16.70;99.90;;;;;;5031110;28;20018;-49
2022/07/10 01:19:55;;;;;;;4.97;1.58;;;16.60;99.90;;;;;;5031561;28;20025;-47
2022/07/10 01:22:21;;;;;;;6.00;1.67;;;16.60;99.90;;;;;;5013955;28;20084;-46
2022/07/10 01:24:47;;;;;;;1.42;1.20;;;16.60;99.90;;;;;;5031698;28;20028;-48
2022/07/10 01:27:12;;;;;;;2.30;1.40;;;16.60;99.90;;;;;;5030888;28;20412;-49
2022/07/10 01:29:39;;;;;;;3.22;1.70;;;16.60;99.90;;;;;;5031517;28;20113;-47
2022/07/10 01:32:04;;;;;;;3.25;1.50;;;16.60;99.90;;;;;;5031629;28;20053;-46
2022/07/10 01:34:30;;;;;;;4.20;1.50;;;16.50;99.90;;;;;;5031523;28;20068;-45
2022/07/10 01:36:56;;;;;;;2.38;1.48;;;16.50;99.90;;;;;;5030791;28;20029;-46
2022/07/10 01:39:21;;;;;;;7.78;1.85;;;16.50;99.90;;;;;;5031363;28;20038;-51
2022/07/10 01:41:47;;;;;;;6.45;1.80;;;16.50;99.90;;;;;;5031434;28;20052;-47
2022/07/10 01:44:13;;;;;;;2.30;1.60;;;16.60;99.90;;;;;;5031232;28;20083;-46
2022/07/10 01:46:46;;;;;;;3.13;1.73;;;16.60;99.90;;;;;;5031356;28;20026;-45
2022/07/10 01:49:11;;;;;;;5.80;1.70;;;16.60;99.90;;;;;;5051549;22;20164;-53
2022/07/10 01:51:37;;;;;;;3.75;1.35;;;16.60;99.90;;;;;;5030645;28;20033;-51
2022/07/10 01:54:02;;;;;;;6.47;2.70;;;16.70;99.90;;;;;;5031417;28;20033;-49
2022/07/10 01:56:28;;;;;;;4.78;1.63;;;16.70;99.90;;;;;;5031350;28;20436;-53
2022/07/10 01:58:53;;;;;;;5.63;1.70;;;16.70;99.90;;;;;;5030874;28;20425;-44
2022/07/10 02:01:19;;;;;;;2.22;1.40;;;16.70;99.90;;;;;;5031280;28;20072;-50
2022/07/10 02:06:29;;;;;;;3.28;1.60;;;16.70;99.90;;;;;;5031373;28;20087;-53
2022/07/10 02:08:54;;;;;;;5.30;1.55;;;16.70;99.90;;;;;;5030564;28;20489;-48
2022/07/10 02:11:20;;;;;;;5.32;1.80;;;16.60;99.90;;;;;;5031182;28;20501;-49
2022/07/10 02:13:46;;;;;;;2.58;1.30;;;16.60;99.90;;;;;;5031090;28;20025;-50
2022/07/10 02:16:11;;;;;;;5.85;2.05;;;16.50;99.90;;;;;;5031566;28;20373;-49
2022/07/10 02:18:38;;;;;;;7.50;1.70;;;16.40;99.90;;;;;;5030415;28;20025;-50
2022/07/10 02:21:04;;;;;;;3.13;1.65;;;16.30;99.90;;;;;;5031048;28;20492;-44
2022/07/10 02:23:30;;;;;;;2.38;1.35;;;16.30;99.90;;;;;;5031143;28;20022;-49
2022/07/10 02:25:55;;;;;;;3.72;1.65;;;16.10;99.90;;;;;;5031196;28;20581;-53
2022/07/10 02:28:21;;;;;;;4.40;1.75;;;16.10;99.90;;;;;;5030332;28;20065;-49
2022/07/10 02:30:46;;;;;;;8.40;1.88;;;16.00;99.90;;;;;;5030950;28;20496;-47
2022/07/10 02:33:12;;;;;;;4.70;1.45;;;16.00;99.90;;;;;;5031066;28;20068;-51
2022/07/10 02:35:37;;;;;;;5.18;1.67;;;16.00;99.90;;;;;;5031054;28;20049;-49
2022/07/10 02:38:03;;;;;;;6.95;2.35;;;16.10;99.90;;;;;;5030644;28;20036;-48
2022/07/10 02:40:28;;;;;;;5.50;1.50;;;16.00;99.90;;;;;;5031001;28;20524;-49
2022/07/10 02:42:54;;;;;;;3.83;1.40;;;16.00;99.90;;;;;;5030827;28;20029;-49
2022/07/10 02:45:19;;;;;;;2.67;1.80;;;16.00;99.90;;;;;;5032310;28;20021;-49
2022/07/10 02:47:45;;;;;;;1.45;1.30;;;15.90;99.90;;;;;;5032817;28;20029;-51
2022/07/10 02:50:10;;;;;;;3.78;1.40;;;15.90;99.90;;;;;;5033526;28;20048;-52
2022/07/10 02:52:36;;;;;;;5.32;1.60;;;15.80;99.90;;;;;;5034213;28;20377;-46
2022/07/10 02:55:02;;;;;;;4.50;1.40;;;15.80;99.90;;;;;;5034743;28;20025;-51
2022/07/10 02:57:27;;;;;;;3.90;1.92;;;15.80;99.90;;;;;;5033607;28;20033;-52
2022/07/10 02:59:53;;;;;;;4.38;1.30;;;15.90;99.90;;;;;;5034304;28;20026;-53
2022/07/10 03:02:18;;;;;;;6.90;1.48;;;15.90;99.90;;;;;;5033976;28;20029;-54
2022/07/10 03:04:44;;;;;;;4.55;1.40;;;15.90;99.90;;;;;;5034353;28;20037;-50
2022/07/10 03:07:09;;;;;;;5.10;1.48;;;15.90;99.90;;;;;;5033717;28;20460;-49
2022/07/10 03:09:35;;;;;;;4.75;1.70;;;15.90;99.90;;;;;;5034001;28;20033;-53
2022/07/10 03:12:00;;;;;;;3.70;1.55;;;15.80;99.90;;;;;;5033870;28;20025;-48
2022/07/10 03:14:26;;;;;;;3.22;1.42;;;15.70;99.90;;;;;;5034040;28;20397;-47
2022/07/10 03:16:52;;;;;;;2.83;1.40;;;15.80;99.90;;;;;;5033108;28;20030;-49
2022/07/10 03:19:17;;;;;;;5.25;1.38;;;15.80;99.90;;;;;;5033816;28;20036;-49
2022/07/10 03:21:44;;;;;;;4.53;1.35;;;15.70;99.90;;;;;;5033805;28;20397;-45
2022/07/10 03:24:09;;;;;;;6.25;1.48;;;15.80;99.90;;;;;;5033884;28;20030;-51
2022/07/10 03:26:35;;;;;;;3.42;1.50;;;15.80;99.90;;;;;;5015921;28;20032;-49
2022/07/10 03:29:00;;;;;;;1.85;1.40;;;15.80;99.90;;;;;;5032996;28;20061;-51
2022/07/10 03:31:26;;;;;;;4.30;1.35;;;15.80;99.90;;;;;;5033622;28;20087;-51
2022/07/10 03:33:52;;;;;;;7.07;2.67;;;15.80;99.90;;;;;;5033596;28;20041;-51
2022/07/10 03:36:18;;;;;;;4.60;1.45;;;15.80;99.90;;;;;;5033667;28;20108;-50
2022/07/10 03:38:45;;;;;;;5.60;1.67;;;15.90;99.90;;;;;;5032663;28;20575;-49
2022/07/10 03:41:11;;;;;;;7.70;1.42;;;15.90;99.90;;;;;;5033696;28;20101;-48
2022/07/10 03:43:36;;;;;;;3.60;1.50;;;15.90;99.90;;;;;;5033588;28;20473;-49
2022/07/10 03:46:02;;;;;;;3.53;1.20;;;15.80;99.90;;;;;;5033598;28;20086;-47
2022/07/10 03:48:27;;;;;;;3.88;1.38;;;15.80;99.90;;;;;;5031668;28;20051;-48
2022/07/10 03:50:53;;;;;;;4.15;1.35;;;15.80;99.90;;;;;;5033867;28;20408;-49
2022/07/10 03:53:19;;;;;;;5.05;1.42;;;15.70;99.90;;;;;;5033396;28;20025;-48
2022/07/10 03:55:45;;;;;;;6.65;2.28;;;15.70;99.90;;;;;;5033242;28;20029;-48
2022/07/10 03:58:10;;;;;;;5.63;1.40;;;15.70;99.90;;;;;;5031832;28;20393;-48
2022/07/10 04:00:38;;;;;;;4.30;1.40;;;15.60;99.90;;;;;;5033169;28;20018;-46
2022/07/10 04:03:07;;;;;;;3.83;1.50;;;15.60;99.90;;;;;;5033163;28;20117;-51
2022/07/10 04:05:33;;;;;;;2.92;1.50;;;15.60;99.90;;;;;;5033135;28;20025;-53
2022/07/10 04:08:00;;;;;;;3.90;1.80;;;15.60;99.90;;;;;;5014488;28;20528;-43
2022/07/10 04:10:27;;;;;;;3.72;1.60;;;15.60;99.90;;;;;;5032895;28;20060;-50
2022/07/10 04:12:53;;;;;;;2.95;1.40;;;15.70;99.90;;;;;;5032701;28;20076;-49
2022/07/10 04:15:20;;;;;;;3.30;1.45;;;15.70;99.90;;;;;;5032947;28;20105;-49
2022/07/10 04:17:45;;;;;;;7.32;1.60;;;15.80;99.90;;;;;;5032003;28;20018;-45
2022/07/10 04:20:11;;;;;;;7.18;1.35;;;15.80;99.90;;;;;;5033161;28;20444;-51
2022/07/10 04:22:37;;;;;;;2.33;1.10;;;15.90;99.90;;;;;;5032749;28;20045;-48
2022/07/10 04:25:03;;;;;;;2.75;1.30;;;15.90;99.90;;;;;;5032735;28;20028;-51
2022/07/10 04:27:29;;;;;;;4.63;1.65;;;15.90;99.90;;;;;;5031736;28;20029;-46
2022/07/10 04:29:54;;;;;;;3.50;1.30;;;16.00;99.90;;;;;;5032553;28;20060;-48
2022/07/10 04:32:20;;;;;;;3.10;1.55;;;15.90;99.90;;;;;;5032471;28;20108;-50
2022/07/10 04:34:45;;;;;;;3.40;1.42;;;16.00;99.90;;;;;;5032861;28;20036;-51
2022/07/10 04:37:11;;;;;;;2.58;1.27;;;16.10;99.90;;;;;;5032003;28;20117;-49
2022/07/10 04:39:38;;;;;;;3.83;1.20;;;16.10;99.90;;;;;;5032284;28;20506;-46
2022/07/10 04:42:07;;;;;;;5.30;1.70;;;16.20;99.90;;;;;;5032285;28;20420;-51
2022/07/10 04:44:34;;;;;;;7.68;1.40;;;16.20;99.90;;;;;;5032394;28;20481;-50
2022/07/10 04:46:59;;;;;;;5.47;1.38;;;16.30;99.90;;;;;;5031592;28;20489;-51
2022/07/10 04:49:25;;;;;;;1.27;0.65;;;16.30;99.90;;;;;;5030320;28;20038;-48
2022/07/10 04:51:51;;;;;;;5.07;1.08;;;16.30;99.90;;;;;;5032366;28;20108;-47
2022/07/10 04:54:16;;;;;;;5.53;1.17;;;16.40;99.90;;;;;;5032107;28;20100;-51
2022/07/10 04:56:42;;;;;;;5.07;1.55;;;16.50;99.90;;;;;;5032217;28;20021;-47
2022/07/10 04:59:09;;;;;;;3.30;0.90;;;16.50;99.90;;;;;;5031384;28;20024;-52
2022/07/10 05:01:34;;;;;;;7.10;1.05;;;16.70;99.90;;;;;;5032120;28;20021;-52
2022/07/10 05:04:00;;;;;;;2.50;0.90;;;16.80;99.90;;;;;;5032002;28;20096;-50
2022/07/10 05:06:25;;;;;;;1.17;0.98;;;17.00;99.90;;;;;;5032222;28;20523;-52
2022/07/10 05:08:51;;;;;;;3.42;1.00;;;17.10;99.90;;;;;;5030827;28;20108;-48
2022/07/10 05:11:16;;;;;;;4.22;1.10;;;17.20;99.90;;;;;;5032054;28;20026;-51
2022/07/10 05:13:48;;;;;;;5.55;1.30;;;17.30;99.90;;;;;;5031966;28;20097;-52
2022/07/10 05:16:16;;;;;;;2.53;0.98;;;17.40;99.90;;;;;;5032132;28;20050;-49
2022/07/10 05:18:42;;;;;;;8.05;1.50;;;17.50;99.70;;;;;;5030944;28;20454;-51
2022/07/10 05:21:08;;;;;;;5.25;1.20;;;17.50;99.50;;;;;;5031684;28;20041;-50
2022/07/10 05:23:34;;;;;;;2.25;0.90;;;17.40;99.50;;;;;;5031523;28;20052;-48
2022/07/10 05:26:00;;;;;;;7.22;1.75;;;17.10;99.80;;;;;;5031673;28;20167;-49
2022/07/10 05:28:25;;;;;;;2.90;1.10;;;16.60;99.90;;;;;;5028582;28;20112;-50
2022/07/10 05:30:51;;;;;;;9.07;2.22;;;16.70;99.90;;;;;;5018860;28;20112;-46
2022/07/10 05:33:17;;;;;;;4.30;0.80;;;17.00;99.90;;;;;;5011738;28;20534;-49
2022/07/10 05:35:42;;;;;;;4.15;1.10;;;17.50;99.70;;;;;;5030595;28;20061;-48
2022/07/10 05:38:08;;;;;;;2.05;0.80;;;17.90;99.00;;;;;;5030673;28;20551;-47
2022/07/10 05:40:34;;;;;;;4.22;1.10;;;18.40;98.50;;;;;;5031731;28;20035;-50
2022/07/10 05:42:59;;;;;;;4.10;1.13;;;19.10;97.80;;;;;;5029514;28;20485;-48
2022/07/10 05:45:25;;;;;;;6.15;1.50;;;19.40;96.90;;;;;;5031202;28;20034;-48
2022/07/10 05:47:51;;;;;;;4.28;0.93;;;20.10;95.90;;;;;;5030423;28;20025;-50
2022/07/10 05:50:16;;;;;;;3.33;1.20;;;20.90;94.00;;;;;;5030841;28;20060;-50
2022/07/10 05:52:42;;;;;;;4.78;1.73;;;21.40;92.60;;;;;;5022686;28;20486;-50
2022/07/10 05:55:08;;;;;;;3.42;0.70;;;20.90;92.30;;;;;;5031354;28;20501;-46
2022/07/10 05:57:34;;;;;;;2.05;0.52;;;21.20;91.10;;;;;;5030470;28;20029;-51
2022/07/10 05:59:59;;;;;;;1.65;0.70;;;21.50;90.50;;;;;;5031234;28;20026;-49
2022/07/10 06:02:25;;;;;;;1.90;0.60;;;21.80;87.00;;;;;;5031358;28;20099;-50
2022/07/10 06:04:50;;;;;;;1.05;0.45;;;21.40;86.30;;;;;;5030371;28;20034;-49
2022/07/10 06:07:16;;;;;;;2.38;0.80;;;21.00;85.60;;;;;;5030112;28;20022;-50
2022/07/10 06:09:42;;;;;;;2.33;0.60;;;21.30;85.90;;;;;;5030604;28;20055;-44
2022/07/10 06:12:08;;;;;;;3.28;0.70;;;21.10;85.40;;;;;;5031177;28;20041;-48
2022/07/10 06:14:34;;;;;;;4.05;0.80;;;20.50;86.40;;;;;;5030768;28;20036;-50
2022/07/10 06:16:59;;;;;;;2.17;0.65;;;20.90;86.90;;;;;;5030240;28;20025;-48
2022/07/10 06:19:25;;;;;;;1.17;0.50;;;20.90;86.10;;;;;;5015808;28;20057;-50
2022/07/10 06:22:30;;;;;;;4.85;1.05;;;21.40;85.20;;;;;;5018015;28;20022;-50
2022/07/10 06:24:36;;;;;;;3.33;0.82;;;21.50;82.40;;;;;;5035089;28;20017;-52
2022/07/10 06:27:01;;;;;;;2.00;0.50;;;21.60;81.90;;;;;;5033983;28;20378;-47
2022/07/10 06:29:27;;;;;;;4.68;1.42;;;21.90;81.60;;;;;;5034427;28;20037;-49
2022/07/10 06:31:53;;;;;;;3.53;0.70;;;22.40;83.20;;;;;;5034576;28;20064;-52
2022/07/10 06:34:19;;;;;;;2.97;0.50;;;23.80;80.00;;;;;;5034870;28;20420;-52
2022/07/10 06:36:44;;;;;;;0.73;0.40;;;23.40;76.50;;;;;;5034403;28;20025;-51
2022/07/10 06:39:10;;;;;;;4.05;0.88;;;22.50;79.10;;;;;;5034420;28;20552;-52
2022/07/10 06:41:36;;;;;;;4.45;0.60;;;22.60;79.50;;;;;;5034758;28;20030;-53
2022/07/10 06:44:02;;;;;;;1.98;0.77;;;22.30;78.40;;;;;;5032993;28;20089;-53
2022/07/10 06:46:27;;;;;;;1.00;0.60;;;22.00;79.50;;;;;;5035216;28;20025;-50
2022/07/10 06:48:53;;;;;;;4.80;0.82;;;21.20;81.20;;;;;;5034129;28;20057;-55
2022/07/10 06:51:18;;;;;;;3.80;0.80;;;21.00;83.00;;;;;;5034678;28;20060;-54
2022/07/10 06:53:44;;;;;;;2.15;0.80;;;20.40;85.30;;;;;;5034526;28;20035;-55
2022/07/10 06:56:10;;;;;;;3.40;0.88;;;20.00;87.10;;;;;;5034526;28;20025;-53
2022/07/10 06:58:36;;;;;;;3.55;1.48;;;20.20;87.00;;;;;;5033524;28;20032;-52
2022/07/10 07:01:01;;;;;;;0.82;0.60;;;20.30;85.10;;;;;;5016640;28;20026;-54
2022/07/10 07:03:27;;;;;;;0.73;0.50;;;20.80;85.40;;;;;;5034334;28;20108;-51
2022/07/10 07:05:52;;;;;;;1.30;0.55;;;22.30;81.20;;;;;;5034269;28;20026;-55
2022/07/10 07:08:18;;;;;;;1.35;0.60;;;22.30;77.10;;;;;;5033640;28;20052;-56
2022/07/10 07:10:44;;;;;;;3.83;0.75;;;22.40;77.40;;;;;;5033959;28;20029;-54
2022/07/10 07:13:09;;;;;;;3.05;0.88;;;22.60;77.80;;;;;;5034268;28;20379;-53
2022/07/10 07:15:38;;;;;;;3.33;0.77;;;23.20;76.00;;;;;;5034123;28;20527;-53
2022/07/10 07:18:12;;;;;;;1.40;0.65;;;24.10;73.60;;;;;;5033325;28;20410;-55
2022/07/10 07:23:23;;;;;;;1.85;0.60;;;23.40;74.90;;;;;;5034245;28;20031;-53
2022/07/10 07:25:49;;;;;;;2.58;0.93;;;24.30;73.50;;;;;;5033728;28;20025;-51
2022/07/10 07:28:15;;;;;;;1.52;0.75;;;24.60;70.10;;;;;;5033338;28;20234;-54
2022/07/10 07:30:42;;;;;;;1.20;0.60;;;24.60;68.50;;;;;;5033462;28;20029;-50
2022/07/10 07:33:08;;;;;;;3.20;0.60;;;25.00;68.50;;;;;;5033781;28;20034;-54
2022/07/10 07:35:34;;;;;;;3.33;0.70;;;25.80;65.20;;;;;;5033952;28;20022;-48
2022/07/10 07:38:01;;;;;;;2.15;0.50;;;26.00;65.70;;;;;;5033166;28;20021;-53
2022/07/10 07:40:27;;;;;;;2.67;0.65;;;25.80;65.00;;;;;;5033964;28;20055;-52
2022/07/10 07:42:53;;;;;;;0.82;0.50;;;24.30;66.00;;;;;;5032914;28;20105;-53
2022/07/10 07:45:20;;;;;;;5.55;0.80;;;24.90;67.00;;;;;;5041809;28;20510;-55
2022/07/10 07:47:56;;;;;;;4.50;0.70;;;24.70;67.40;;;;;;5032960;28;20413;-54
2022/07/10 07:50:26;;;;;;;4.30;0.80;;;24.80;66.50;;;;;;5047810;22;20054;-46
2022/07/10 07:52:52;;;;;;;2.75;0.70;;;24.30;66.70;;;;;;5033639;28;20026;-45
2022/07/10 07:55:19;;;;;;;2.90;0.65;;;22.50;70.80;;;;;;5033328;28;20040;-46
2022/07/10 07:57:45;;;;;;;1.88;0.70;;;21.50;73.80;;;;;;5032055;28;20034;-47
2022/07/10 08:00:11;;;;;;;4.05;0.80;;;20.70;75.30;;;;;;5014926;28;20033;-49
2022/07/10 08:02:37;;;;;;;1.35;0.60;;;20.50;76.90;;;;;;5033311;28;20465;-51
2022/07/10 08:05:06;;;;;;;7.88;1.05;;;20.30;77.10;;;;;;5033388;28;20117;-46
2022/07/10 08:07:41;;;;;;;1.95;0.75;;;19.90;78.50;;;;;;5031678;28;20030;-49
2022/07/10 08:10:11;;;;;;;2.63;0.93;;;19.80;79.40;;;;;;5024292;28;20030;-45
2022/07/10 08:12:38;;;;;;;2.83;0.57;;;19.40;79.80;;;;;;5029889;28;20104;-50
2022/07/10 08:15:06;;;;;;;1.88;0.73;;;19.20;80.00;;;;;;5021599;28;20110;-47
2022/07/10 08:17:31;;;;;;;2.28;0.90;;;19.10;80.30;;;;;;5012647;28;20036;-48
2022/07/10 08:19:57;;;;;;;3.95;0.80;;;19.00;80.10;;;;;;5031214;28;20120;-49
2022/07/10 08:22:22;;;;;;;2.53;1.20;;;18.80;81.40;;;;;;5014641;28;20535;-50
2022/07/10 08:24:48;;;;;;;3.28;0.98;;;18.70;82.30;;;;;;5024621;28;20033;-49
2022/07/10 08:27:13;;;;;;;6.10;1.00;;;18.90;81.20;;;;;;5031790;28;20029;-48
2022/07/10 08:29:39;;;;;;;2.92;0.65;;;18.60;80.70;;;;;;5032282;28;20401;-49
2022/07/10 08:32:05;;;;;;;2.30;0.80;;;18.60;82.00;;;;;;5017290;28;20501;-51
2022/07/10 08:34:32;;;;;;;1.75;0.90;;;18.50;82.40;;;;;;4997356;28;20112;-46
2022/07/10 08:36:58;;;;;;;6.78;1.83;;;18.50;81.50;;;;;;5018652;28;20394;-48
2022/07/10 08:39:24;;;;;;;68.35;45.75;;;18.60;83.70;;;;;;5012643;28;20033;-48
2022/07/10 08:41:50;;;;;;;4.82;2.15;;;18.80;84.60;;;;;;4995177;28;20616;-53
2022/07/10 08:44:17;;;;;;;4.97;0.73;;;19.40;84.20;;;;;;5027583;28;20092;-51
2022/07/10 08:46:43;;;;;;;3.45;1.13;;;19.90;82.30;;;;;;5027393;28;20441;-48
2022/07/10 08:49:11;;;;;;;1.55;0.73;;;20.60;81.10;;;;;;5031032;28;20025;-48
2022/07/10 08:51:59;;;;;;;3.85;0.68;;;21.40;77.60;;;;;;5032829;28;20047;-49
2022/07/10 08:54:28;;;;;;;6.93;1.25;;;21.60;77.90;;;;;;5021076;28;20251;-51
2022/07/10 08:56:55;;;;;;;9.25;1.23;;;21.20;76.20;;;;;;5025733;28;20559;-51
2022/07/10 08:59:22;;;;;;;1.95;0.65;;;21.20;76.60;;;;;;5030091;28;20061;-48
2022/07/10 09:01:49;;;;;;;3.42;0.73;;;21.30;76.70;;;;;;5013892;28;20029;-49
2022/07/10 09:04:19;;;;;;;4.47;1.63;;;21.00;77.10;;;;;;5031946;28;20236;-48
2022/07/10 09:06:45;;;;;;;3.50;1.08;;;20.50;78.20;;;;;;5023132;28;20033;-50
2022/07/10 09:09:11;;;;;;;3.47;0.60;;;20.20;78.80;;;;;;5016650;28;20440;-50
2022/07/10 09:11:40;;;;;;;3.33;0.82;;;20.10;79.60;;;;;;5028989;28;20124;-48
2022/07/10 09:14:08;;;;;;;4.38;0.90;;;20.00;80.10;;;;;;5031631;28;20516;-48
2022/07/10 09:16:36;;;;;;;4.97;0.70;;;20.30;80.00;;;;;;4997580;28;20053;-47
2022/07/10 09:19:25;;;;;;;4.07;0.90;;;20.40;80.10;;;;;;5010590;28;20113;-50
2022/07/10 09:22:02;;;;;;;2.03;1.10;;;20.60;78.20;;;;;;5012008;28;20018;-49
2022/07/10 09:24:35;;;;;;;3.10;0.90;;;20.50;79.30;;;;;;5011589;28;20025;-47
2022/07/10 09:27:03;;;;;;;4.10;0.70;;;20.70;78.40;;;;;;5013125;28;20021;-49
2022/07/10 09:29:33;;;;;;;1.40;0.70;;;20.80;77.80;;;;;;5031251;28;20021;-46
2022/07/10 09:32:00;;;;;;;1.75;0.70;;;20.60;79.10;;;;;;5031575;28;20112;-48
2022/07/10 09:34:47;;;;;;;4.07;0.80;;;20.30;80.60;;;;;;5031002;28;20026;-52
2022/07/10 09:37:26;;;;;;;5.55;1.23;;;20.40;79.90;;;;;;5010536;28;20124;-52
2022/07/10 09:39:53;;;;;;;2.75;0.70;;;20.00;81.00;;;;;;5011596;28;20155;-47
2022/07/10 09:42:26;;;;;;;2.10;1.52;;;20.20;80.50;;;;;;5011242;28;20100;-49
2022/07/10 09:44:52;;;;;;;2.78;1.15;;;20.10;79.90;;;;;;5012851;28;20390;-48
2022/07/10 09:47:24;;;;;;;8.63;3.50;;;20.00;80.30;;;;;;5029932;28;20083;-50
2022/07/10 09:49:49;;;;;;;1.45;1.00;;;19.90;80.60;;;;;;5030369;28;20029;-47
2022/07/10 09:52:19;;;;;;;3.42;0.80;;;19.70;82.10;;;;;;5025339;28;20490;-47
2022/07/10 09:54:46;;;;;;;4.43;1.02;;;19.90;80.70;;;;;;5013984;28;20033;-49
2022/07/10 09:57:16;;;;;;;4.70;1.20;;;20.30;81.40;;;;;;5017389;28;20342;-49
2022/07/10 09:59:42;;;;;;;5.28;1.00;;;20.30;81.10;;;;;;5035141;28;20413;-47
2022/07/10 10:02:09;;;;;;;4.35;1.10;;;20.00;81.30;;;;;;5035041;28;20037;-49
2022/07/10 10:04:36;;;;;;;2.60;1.10;;;19.90;82.90;;;;;;5034862;28;20079;-47
2022/07/10 10:07:03;;;;;;;2.83;1.00;;;20.20;82.60;;;;;;5033696;28;20458;-51
2022/07/10 10:09:40;;;;;;;7.75;0.90;;;20.30;82.40;;;;;;5015039;28;20361;-46
2022/07/10 10:12:16;;;;;;;4.43;1.10;;;20.50;82.20;;;;;;4997698;28;20507;-48
2022/07/10 10:14:43;;;;;;;1.67;1.00;;;20.50;79.90;;;;;;5015461;28;20049;-50
2022/07/10 10:17:10;;;;;;;7.22;1.33;;;20.80;80.90;;;;;;5029805;28;20421;-48
2022/07/10 10:22:23;;;;;;;1.05;0.90;;;20.60;79.50;;;;;;5040108;28;20032;-47
2022/07/10 10:24:50;;;;;;;3.30;0.88;;;20.70;77.20;;;;;;5041796;28;20064;-47
2022/07/10 10:27:15;;;;;;;2.63;0.88;;;20.90;79.00;;;;;;5020127;28;20053;-48
2022/07/10 10:29:42;;;;;;;4.28;1.30;;;20.80;78.90;;;;;;5032503;28;20465;-51
2022/07/10 10:32:08;;;;;;;3.38;0.90;;;21.00;78.20;;;;;;5034621;28;20432;-50
2022/07/10 10:34:44;;;;;;;5.80;1.13;;;21.20;77.50;;;;;;5034542;28;20037;-45
2022/07/10 10:37:38;;;;;;;7.45;1.35;;;21.10;77.10;;;;;;5030900;28;20060;-46
2022/07/10 10:40:05;;;;;;;4.22;1.15;;;21.00;78.60;;;;;;5013654;28;20026;-49
2022/07/10 10:42:39;;;;;;;2.83;1.02;;;21.00;78.80;;;;;;5015298;28;20049;-50
2022/07/10 10:45:27;;;;;;;2.35;0.98;;;21.00;79.30;;;;;;5020847;28;20470;-53
2022/07/10 10:48:09;;;;;;;4.55;1.50;;;20.50;80.60;;;;;;5022858;28;20025;-52
2022/07/10 10:50:49;;;;;;;5.35;2.13;;;20.20;81.80;;;;;;5034268;28;20033;-47
2022/07/10 10:53:29;;;;;;;4.88;1.30;;;20.00;82.60;;;;;;5030151;28;20139;-49
2022/07/10 10:56:03;;;;;;;4.72;1.00;;;20.00;83.00;;;;;;5014797;28;20014;-51
2022/07/10 10:58:44;;;;;;;5.38;1.38;;;20.00;83.50;;;;;;5027657;28;20531;-47
2022/07/10 11:01:25;;;;;;;2.78;0.80;;;20.10;83.10;;;;;;5034155;28;20038;-50
2022/07/10 11:04:09;;;;;;;3.10;1.15;;;20.10;83.10;;;;;;5034311;28;20108;-49
2022/07/10 11:06:46;;;;;;;7.97;1.30;;;20.30;82.70;;;;;;5033531;28;20389;-51
2022/07/10 11:09:24;;;;;;;3.83;1.17;;;20.30;81.00;;;;;;5033041;28;20029;-48
2022/07/10 11:12:06;;;;;;;6.13;1.40;;;20.40;81.60;;;;;;5033456;28;20025;-50
2022/07/10 11:14:47;;;;;;;3.97;1.00;;;20.60;81.60;;;;;;5034030;28;20036;-50
2022/07/10 11:17:13;;;;;;;5.53;1.50;;;20.80;80.00;;;;;;5033226;28;20510;-50
2022/07/10 11:19:39;;;;;;;6.47;1.10;;;20.70;79.00;;;;;;5034091;28;20036;-49
2022/07/10 11:22:33;;;;;;;10.43;3.35;;;20.70;79.80;;;;;;5034036;28;20028;-49
2022/07/10 11:25:38;;;;;;;5.53;1.10;;;21.00;79.50;;;;;;5033618;28;20025;-50
2022/07/10 11:28:09;;;;;;;3.75;1.15;;;21.30;78.90;;;;;;5033175;28;20022;-51
2022/07/10 11:30:53;;;;;;;6.53;1.00;;;21.40;78.10;;;;;;5014061;28;20371;-47
2022/07/10 11:33:20;;;;;;;5.80;2.03;;;21.30;78.60;;;;;;5013940;28;20056;-54
2022/07/10 11:35:52;;;;;;;10.13;1.50;;;21.00;79.10;;;;;;5026661;28;20021;-47
2022/07/10 11:38:22;;;;;;;2.97;1.25;;;20.90;79.50;;;;;;5032801;28;20029;-48
2022/07/10 11:40:47;;;;;;;3.78;1.10;;;20.70;79.50;;;;;;5033502;28;20031;-49
2022/07/10 11:43:16;;;;;;;3.30;1.48;;;20.70;80.20;;;;;;5033549;28;20100;-53
2022/07/10 11:45:43;;;;;;;3.67;1.10;;;20.80;80.90;;;;;;5031823;28;20028;-54
2022/07/10 11:48:17;;;;;;;5.28;1.20;;;20.90;81.50;;;;;;5029127;28;20021;-47
2022/07/10 11:50:43;;;;;;;2.90;0.98;;;21.20;80.90;;;;;;5032749;28;20083;-50
2022/07/10 11:53:09;;;;;;;2.92;1.33;;;21.20;81.00;;;;;;5028900;28;20079;-53
2022/07/10 11:55:40;;;;;;;6.63;2.03;;;21.20;81.40;;;;;;5021408;28;20427;-48
2022/07/10 11:58:20;;;;;;;5.85;1.73;;;21.20;80.50;;;;;;5032331;28;20030;-51
2022/07/10 12:01:06;;;;;;;7.55;1.50;;;21.30;80.50;;;;;;5031448;28;20029;-51
2022/07/10 12:03:32;;;;;;;5.78;1.58;;;21.10;80.10;;;;;;5033310;28;20021;-48
2022/07/10 12:06:05;;;;;;;7.40;2.08;;;21.10;81.00;;;;;;5033127;28;20057;-54
2022/07/10 12:08:45;;;;;;;1.58;0.77;;;21.10;81.40;;;;;;5031078;28;20033;-51
2022/07/10 12:11:12;;;;;;;5.07;1.35;;;21.20;81.30;;;;;;5033192;28;20033;-51
2022/07/10 12:13:38;;;;;;;5.70;1.00;;;21.30;81.10;;;;;;5032599;28;20021;-53
2022/07/10 12:16:04;;;;;;;6.18;1.42;;;21.40;81.00;;;;;;5031161;28;20405;-51
2022/07/10 12:18:32;;;;;;;5.97;1.00;;;21.50;80.10;;;;;;5029146;28;20022;-55
2022/07/10 12:20:59;;;;;;;3.92;1.00;;;21.60;80.00;;;;;;5013056;28;20068;-50
2022/07/10 12:23:25;;;;;;;3.70;0.85;;;21.80;79.80;;;;;;5015849;28;20022;-50
2022/07/10 12:25:50;;;;;;;5.18;1.35;;;21.90;79.70;;;;;;5032809;28;20013;-52
2022/07/10 12:28:16;;;;;;;2.92;0.80;;;21.80;79.80;;;;;;5025036;28;20030;-52
2022/07/10 12:30:44;;;;;;;2.63;1.10;;;21.80;79.60;;;;;;5013653;28;20030;-53
2022/07/10 12:33:20;;;;;;;7.40;1.38;;;21.70;79.70;;;;;;5015952;28;20517;-50
2022/07/10 12:35:49;;;;;;;3.97;1.10;;;21.80;79.00;;;;;;5025207;28;20037;-48
2022/07/10 12:38:19;;;;;;;3.28;1.17;;;21.70;79.20;;;;;;5011923;28;20437;-50
2022/07/10 12:40:45;;;;;;;4.28;0.75;;;21.80;78.80;;;;;;5012575;28;20018;-53
2022/07/10 12:43:11;;;;;;;3.85;1.13;;;21.80;77.80;;;;;;5012854;28;20026;-52
2022/07/10 12:45:38;;;;;;;4.75;0.90;;;21.80;78.60;;;;;;5013021;28;20050;-52
2022/07/10 12:48:05;;;;;;;3.58;0.93;;;21.80;78.20;;;;;;5012403;28;20018;-48
2022/07/10 12:50:32;;;;;;;3.60;0.90;;;21.70;78.40;;;;;;5016386;28;20028;-50
2022/07/10 12:53:08;;;;;;;7.85;1.33;;;21.70;78.00;;;;;;4995791;28;20084;-48
2022/07/10 12:55:37;;;;;;;5.10;0.80;;;21.80;78.40;;;;;;5012398;28;20117;-51
2022/07/10 12:58:11;;;;;;;2.30;0.52;;;21.80;77.60;;;;;;5025953;28;20071;-49